createdAt,value
2022-10-09T00:01:43.783Z,1009.33
2022-10-09T00:11:51.845Z,1009.33
2022-10-09T00:21:58.119Z,1009.33
2022-10-09T00:32:03.928Z,1009.31
2022-10-09T00:42:09.642Z,1009.34
2022-10-09T00:52:16.000Z,1009.33
2022-10-09T01:02:23.475Z,1009.31
2022-10-09T01:12:30.438Z,1009.34
2022-10-09T01:22:37.631Z,1009.33
2022-10-09T01:32:44.366Z,1009.37
2022-10-09T01:42:52.167Z,1009.39
2022-10-09T01:52:59.200Z,1009.47
2022-10-09T02:03:06.212Z,1009.44
2022-10-09T02:13:13.123Z,1009.43
2022-10-09T02:23:20.199Z,1009.39
2022-10-09T02:33:26.719Z,1009.42
2022-10-09T02:43:33.826Z,1009.56
2022-10-09T02:53:40.746Z,1009.58
2022-10-09T03:03:47.850Z,1009.63
2022-10-09T03:13:55.006Z,1009.64
2022-10-09T03:24:02.193Z,1009.57
2022-10-09T03:34:08.370Z,1009.56
2022-10-09T03:44:14.195Z,1009.72
2022-10-09T03:54:20.294Z,1009.71
2022-10-09T04:04:27.001Z,1009.75
2022-10-09T04:14:33.818Z,1009.74
2022-10-09T04:24:40.564Z,1009.79
2022-10-09T04:34:46.544Z,1009.89
2022-10-09T04:44:54.608Z,1009.83
2022-10-09T04:55:00.703Z,1009.74
2022-10-09T05:05:06.443Z,1009.78
2022-10-09T05:15:12.535Z,1009.92
2022-10-09T05:25:18.654Z,1009.94
2022-10-09T05:35:25.175Z,1009.99
2022-10-09T05:45:31.974Z,1010.07
2022-10-09T05:55:39.902Z,1010.04
2022-10-09T06:05:45.660Z,1010.00
2022-10-09T06:15:51.885Z,1010.08
2022-10-09T06:25:59.126Z,1010.04
2022-10-09T06:36:09.984Z,1010.12
2022-10-09T06:46:17.797Z,1010.24
2022-10-09T06:56:25.054Z,1010.28
2022-10-09T07:06:30.957Z,1010.40
2022-10-09T07:16:38.601Z,1010.44
2022-10-09T07:26:44.023Z,1010.41
2022-10-09T07:36:51.395Z,1010.50
2022-10-09T07:46:58.441Z,1010.57
2022-10-09T07:57:05.703Z,1010.56
2022-10-09T08:07:13.073Z,1010.53
2022-10-09T08:17:19.869Z,1010.45
2022-10-09T08:27:27.354Z,1010.51
2022-10-09T08:37:34.392Z,1010.46
2022-10-09T08:47:41.876Z,1010.44
2022-10-09T08:57:49.097Z,1010.38
2022-10-09T09:07:56.338Z,1010.34
2022-10-09T09:18:03.628Z,1010.19
2022-10-09T09:28:12.513Z,1010.10
2022-10-09T09:38:20.102Z,1009.93
2022-10-09T09:48:27.356Z,1009.82
2022-10-09T09:58:34.619Z,1009.78
2022-10-09T10:08:42.379Z,1009.48
2022-10-09T10:18:49.635Z,1009.35
2022-10-09T10:28:56.741Z,1009.18
2022-10-09T10:39:03.749Z,1009.07
2022-10-09T10:49:11.015Z,1008.90
2022-10-09T10:59:22.223Z,1008.71
2022-10-09T11:09:29.245Z,1008.56
2022-10-09T11:19:37.921Z,1008.35
2022-10-09T11:29:48.353Z,1008.12
2022-10-09T11:39:55.656Z,1007.93
2022-10-09T11:50:02.636Z,1007.82
2022-10-09T12:00:09.410Z,1007.61
2022-10-09T12:10:16.047Z,1007.45
2022-10-09T12:20:22.825Z,1007.35
2022-10-09T12:30:29.761Z,1007.23
2022-10-09T12:40:36.557Z,1007.05
2022-10-09T12:50:43.513Z,1006.90
2022-10-09T13:00:50.042Z,1006.80
2022-10-09T13:10:57.491Z,1006.63
2022-10-09T13:21:04.544Z,1006.45
2022-10-09T13:31:12.108Z,1006.30
2022-10-09T13:41:19.372Z,1006.22
2022-10-09T13:51:26.545Z,1006.07
2022-10-09T14:01:34.888Z,1005.97
2022-10-09T14:11:41.144Z,1005.95
2022-10-09T14:21:48.003Z,1005.86
2022-10-09T14:31:55.388Z,1005.77
2022-10-09T14:42:02.329Z,1005.64
2022-10-09T14:52:09.052Z,1005.61
2022-10-09T15:02:14.911Z,1005.51
2022-10-09T15:12:20.511Z,1005.42
2022-10-09T15:22:26.373Z,1005.31
2022-10-09T15:32:32.117Z,1005.19
2022-10-09T15:42:38.078Z,1004.96
2022-10-09T15:52:43.978Z,1004.86
2022-10-09T16:02:51.024Z,1004.92
2022-10-09T16:12:58.386Z,1004.86
2022-10-09T16:23:05.034Z,1004.82
2022-10-09T16:33:13.019Z,1004.87
2022-10-09T16:43:20.364Z,1004.87
2022-10-09T16:53:27.375Z,1004.88
2022-10-09T17:03:34.636Z,1004.91
2022-10-09T17:13:41.324Z,1004.83
2022-10-09T17:23:48.543Z,1004.87
2022-10-09T17:33:55.309Z,1004.87
2022-10-09T17:44:02.139Z,1004.96
2022-10-09T17:54:11.917Z,1004.86
2022-10-09T18:04:18.469Z,1004.84
2022-10-09T18:14:25.371Z,1004.86
2022-10-09T18:24:32.444Z,1004.79
2022-10-09T18:34:43.131Z,1004.76
2022-10-09T18:44:51.293Z,1004.67
2022-10-09T18:54:57.291Z,1004.64
2022-10-09T19:05:03.162Z,1004.60
2022-10-09T19:15:12.068Z,1004.55
2022-10-09T19:25:18.559Z,1004.40
2022-10-09T19:35:25.088Z,1004.32
2022-10-09T19:45:32.114Z,1004.28
2022-10-09T19:55:38.980Z,1004.21
2022-10-09T20:05:46.024Z,1004.13
2022-10-09T20:15:52.936Z,1004.14
2022-10-09T20:25:59.711Z,1004.18
2022-10-09T20:36:06.660Z,1004.08
2022-10-09T20:46:13.713Z,1004.02
2022-10-09T20:56:20.835Z,1003.97
2022-10-09T21:06:27.972Z,1003.88
2022-10-09T21:16:35.559Z,1003.85
2022-10-09T21:26:42.025Z,1003.80
2022-10-09T21:37:16.505Z,1003.74
2022-10-09T21:47:01.121Z,1003.66
2022-10-09T21:57:08.384Z,1003.57
2022-10-09T22:07:15.424Z,1003.55
2022-10-09T22:17:22.580Z,1003.45
2022-10-09T22:27:29.649Z,1003.31
2022-10-09T22:37:36.320Z,1003.20
2022-10-09T22:47:43.332Z,1003.17
2022-10-09T22:57:50.318Z,1003.09
2022-10-09T23:07:57.911Z,1003.04
2022-10-09T23:18:04.959Z,1002.93
2022-10-09T23:28:12.270Z,1002.93
2022-10-09T23:38:19.108Z,1002.97
2022-10-09T23:48:26.301Z,1002.85
2022-10-09T23:58:33.204Z,1002.87
